Hlavní strana
METAR-TAF:

METAR-TAF

Letiště :

Letiště Žilina

Žilina, Slovensko

zeměpisná šířka: 49-14N, zeměpisná délka: 018-36-49E, výška: 312 m

Aktuální stav počasí

Zpráva byla vytvořena před 11 minutami, v 07:00 UTC
Severovýchodní vítr 6 kt
Teplota 20°C
Vlhkost vzduchu 68%
Tlak 1017 hPa
Viditelnost 10 km a více
Polojasno ve výšce 3000 ft

METAR: LZZI 150700Z 04006KT 9999 SCT030 20/14 Q1017

Čas: 09:11 (07:11 UTC)

Předpověď počasí

Zpráva byla vytvořena před 2 hodinami a 11 minutami, v 05:00 UTC
Předpověď platná od 15 v 06 UTC do 15 v 15 UTC
vítr z různých směrů 2 kt
Viditelnost 10 km a více
Polojasno ve výšce 5000 ft
Změna
od 15 v 06 UTC do 15 v 08 UTC
Severovýchodní vítr 6 kt
Pravděpodobnost 40% :
Dočasný
od 15 v 10 UTC do 15 v 15 UTC
Oblačno až skoro zataženo ve výšce 4300 ft
slabé dešťové přeháňky

TAF: LZZI 150500Z 1506/1515 VRB02KT 9999 SCT050 BECMG 1506/1508 05006KT PROB40 TEMPO 1510/1515 -SHRA BKN043

Stav a předpovědi počasí z více než 4 000 letišť (zprávy METAR a TAF).

Červené a žluté tečky na mapě představují dostupné meteorologické stanice.

Když kurzor umístíte na tečku, zobrazí se název stanice.

Pak kliknutím zobrazíte stav a předpověď počasí.

Chcete-li změnit mapu, kliknutím na zelené tlačítko se znaménkem +mapu přiblížíte, kliknutím na zelené tlačítko se znaménkem – mapu oddálíte a kliknutím na zelené šipky přejdete na sousední mapy.


METAR-TAF: